Time;durP1;ratioP1;P1;durP2;ratioP2;P2;SDS_P1;SDS_P2;PMS_P1;PMS_P2;Temp;Humidity;BMP_temperature;BMP_pressure;BME280_temperature;BME280_humidity;BME280_pressure;Samples;Min_cycle;Max_cycle;Signal;HPM_P1;HPM_P2
2021/10/23 00:01:59;;;;;;;6.45;5.45;;;23.00;77.40;;;;;;5071102;28;20052;-62
2021/10/23 00:04:27;;;;;;;5.95;5.35;;;23.10;77.10;;;;;;5071281;28;20032;-67
2021/10/23 00:06:54;;;;;;;8.07;5.10;;;23.00;79.20;;;;;;5072851;28;20432;-67
2021/10/23 00:09:21;;;;;;;8.15;5.22;;;23.20;79.00;;;;;;5072453;28;20250;-65
2021/10/23 00:11:49;;;;;;;7.43;5.72;;;23.20;76.40;;;;;;5072481;28;20036;-64
2021/10/23 00:14:16;;;;;;;5.97;4.95;;;23.20;76.30;;;;;;5072503;28;20024;-64
2021/10/23 00:16:44;;;;;;;6.95;5.22;;;23.20;78.20;;;;;;5072105;28;20382;-63
2021/10/23 00:19:12;;;;;;;5.32;4.75;;;23.30;79.80;;;;;;5072094;28;20032;-69
2021/10/23 00:21:39;;;;;;;6.50;4.82;;;23.40;78.00;;;;;;5071620;28;20025;-60
2021/10/23 00:24:07;;;;;;;8.73;5.03;;;23.60;78.90;;;;;;5072018;28;20035;-63
2021/10/23 00:26:34;;;;;;;6.82;4.90;;;23.80;77.10;;;;;;5072395;28;20029;-66
2021/10/23 00:29:02;;;;;;;6.55;5.05;;;23.60;77.50;;;;;;5072054;28;20039;-61
2021/10/23 00:31:29;;;;;;;6.38;4.65;;;23.70;75.40;;;;;;5072262;28;20024;-63
2021/10/23 00:33:56;;;;;;;6.18;4.63;;;23.70;78.10;;;;;;5072018;28;20055;-67
2021/10/23 00:36:24;;;;;;;5.22;4.72;;;23.80;75.60;;;;;;5071761;28;20032;-63
2021/10/23 00:38:51;;;;;;;5.63;3.95;;;23.70;75.60;;;;;;5071186;28;20417;-56
2021/10/23 00:41:18;;;;;;;6.28;5.13;;;23.70;77.10;;;;;;5071774;28;20020;-61
2021/10/23 00:43:47;;;;;;;6.70;5.65;;;23.80;77.20;;;;;;5071762;28;20020;-60
2021/10/23 00:46:16;;;;;;;5.65;4.72;;;23.70;75.30;;;;;;5071739;28;20074;-63
2021/10/23 00:48:44;;;;;;;5.93;4.80;;;23.70;75.40;;;;;;5071703;28;20462;-61
2021/10/23 00:51:15;;;;;;;5.85;4.75;;;23.90;77.40;;;;;;5071675;28;20453;-61
2021/10/23 00:53:43;;;;;;;6.32;4.90;;;24.00;75.30;;;;;;5071705;28;20056;-62
2021/10/23 00:56:11;;;;;;;6.43;5.03;;;24.10;75.60;;;;;;5071322;28;20043;-63
2021/10/23 00:58:39;;;;;;;5.40;4.57;;;24.10;74.60;;;;;;5071370;28;20387;-61
2021/10/23 01:01:06;;;;;;;5.80;4.35;;;24.20;76.30;;;;;;5071466;28;20036;-62
2021/10/23 01:03:34;;;;;;;8.32;4.45;;;24.10;74.20;;;;;;5071651;28;20028;-64
2021/10/23 01:06:01;;;;;;;5.13;4.30;;;24.30;76.40;;;;;;5072023;28;20490;-62
2021/10/23 01:08:29;;;;;;;5.13;4.60;;;24.30;74.20;;;;;;5071885;28;20021;-61
2021/10/23 01:10:56;;;;;;;5.88;4.22;;;24.20;74.20;;;;;;5072058;28;20029;-65
2021/10/23 01:13:24;;;;;;;5.25;4.50;;;24.30;74.30;;;;;;5071411;28;20024;-67
2021/10/23 01:15:51;;;;;;;5.50;3.70;;;24.30;76.20;;;;;;5071463;28;20108;-64
2021/10/23 01:18:19;;;;;;;4.65;4.05;;;24.50;74.70;;;;;;5071036;28;20371;-68
2021/10/23 01:20:46;;;;;;;5.60;3.95;;;24.40;75.80;;;;;;5070364;28;20071;-62
2021/10/23 01:23:13;;;;;;;5.60;4.25;;;24.70;75.60;;;;;;5071470;28;20542;-60
2021/10/23 01:25:41;;;;;;;5.07;4.45;;;24.50;73.20;;;;;;5071323;28;20036;-60
2021/10/23 01:28:08;;;;;;;5.43;4.80;;;24.40;74.10;;;;;;5071650;28;20023;-64
2021/10/23 01:30:35;;;;;;;7.80;4.30;;;24.40;73.80;;;;;;5070249;28;20359;-62
2021/10/23 01:33:03;;;;;;;6.15;4.45;;;24.60;75.30;;;;;;5071385;28;20434;-57
2021/10/23 01:35:31;;;;;;;8.18;4.35;;;24.60;73.80;;;;;;5075182;28;20025;-63
2021/10/23 01:37:59;;;;;;;5.78;3.88;;;24.70;74.20;;;;;;5064192;28;20071;-61
2021/10/23 01:40:34;;;;;;;4.53;3.83;;;24.80;73.70;;;;;;5068537;28;20074;-58
2021/10/23 01:43:03;;;;;;;4.88;3.90;;;24.90;72.70;;;;;;5069964;28;20112;-56
2021/10/23 01:45:32;;;;;;;8.48;3.90;;;24.90;72.50;;;;;;5072094;28;20024;-60
2021/10/23 01:48:00;;;;;;;4.82;4.00;;;25.10;72.90;;;;;;5072532;28;20116;-59
2021/10/23 01:50:29;;;;;;;4.28;3.33;;;25.00;72.40;;;;;;5067340;28;20090;-57
2021/10/23 01:52:57;;;;;;;8.68;4.10;;;25.00;72.40;;;;;;5072377;28;20350;-62
2021/10/23 01:55:25;;;;;;;4.35;3.83;;;25.10;73.30;;;;;;5071006;28;20024;-64
2021/10/23 01:57:57;;;;;;;5.05;3.22;;;25.20;72.40;;;;;;5070225;28;20474;-61
2021/10/23 02:00:24;;;;;;;6.05;3.10;;;25.40;74.10;;;;;;5068639;28;20121;-63
2021/10/23 02:02:52;;;;;;;4.18;3.47;;;25.50;73.50;;;;;;5071194;28;20024;-67
2021/10/23 02:05:19;;;;;;;4.88;3.75;;;25.50;72.80;;;;;;5071996;28;20483;-65
2021/10/23 02:07:46;;;;;;;4.18;3.78;;;25.40;71.90;;;;;;5070914;28;20516;-60
2021/10/23 02:10:14;;;;;;;5.80;3.97;;;25.40;72.40;;;;;;5069274;28;20028;-64
2021/10/23 02:12:41;;;;;;;5.95;3.50;;;25.50;73.80;;;;;;5070063;28;20431;-62
2021/10/23 02:15:10;;;;;;;4.80;3.53;;;25.60;73.50;;;;;;5073170;28;20016;-57
2021/10/23 02:17:37;;;;;;;4.22;3.78;;;25.50;72.10;;;;;;5075051;28;20016;-57
2021/10/23 02:20:08;;;;;;;4.57;3.42;;;25.40;72.70;;;;;;5075078;28;20494;-57
2021/10/23 02:22:35;;;;;;;5.40;3.63;;;25.50;73.50;;;;;;5075133;28;20086;-59
2021/10/23 02:25:03;;;;;;;7.03;3.38;;;25.50;73.20;;;;;;5074708;28;20025;-55
2021/10/23 02:27:35;;;;;;;7.05;3.40;;;25.60;73.70;;;;;;5073547;28;20020;-48
2021/10/23 02:30:05;;;;;;;8.95;3.58;;;25.80;73.70;;;;;;5074188;28;20029;-58
2021/10/23 02:32:33;;;;;;;6.93;3.45;;;26.00;73.60;;;;;;5074202;28;20383;-55
2021/10/23 02:35:00;;;;;;;7.32;3.70;;;26.10;73.70;;;;;;5073583;28;20039;-57
2021/10/23 02:37:28;;;;;;;6.60;2.97;;;26.20;73.40;;;;;;5074040;28;20860;-55
2021/10/23 02:39:56;;;;;;;10.07;3.60;;;26.30;73.60;;;;;;5073944;28;20155;-53
2021/10/23 02:42:23;;;;;;;6.95;3.35;;;26.40;73.40;;;;;;5074299;28;20058;-60
2021/10/23 02:44:50;;;;;;;10.10;3.88;;;26.40;73.20;;;;;;5072918;28;20031;-59
2021/10/23 02:47:18;;;;;;;4.18;2.88;;;26.40;73.20;;;;;;5074161;28;20111;-61
2021/10/23 02:49:45;;;;;;;9.63;3.42;;;26.40;73.60;;;;;;5073823;28;20040;-53
2021/10/23 02:52:13;;;;;;;6.35;2.85;;;26.40;73.50;;;;;;5073792;28;20403;-60
2021/10/23 02:54:40;;;;;;;13.07;3.35;;;26.50;73.40;;;;;;5073504;28;20357;-61
2021/10/23 02:57:07;;;;;;;7.43;3.28;;;26.40;73.50;;;;;;5074305;28;20105;-58
2021/10/23 02:59:35;;;;;;;10.70;3.13;;;26.40;73.10;;;;;;5073793;28;20032;-62
2021/10/23 03:02:02;;;;;;;11.23;3.65;;;26.40;73.40;;;;;;5071544;28;20033;-56
2021/10/23 03:04:29;;;;;;;9.75;3.70;;;26.40;73.40;;;;;;5073534;28;20070;-61
2021/10/23 03:06:57;;;;;;;8.95;3.28;;;26.50;73.90;;;;;;5073565;28;20043;-56
2021/10/23 03:09:24;;;;;;;7.68;2.95;;;26.40;74.30;;;;;;5073670;28;20459;-58
2021/10/23 03:11:51;;;;;;;8.57;3.35;;;26.40;74.50;;;;;;5073419;28;20204;-57
2021/10/23 03:14:19;;;;;;;6.40;3.10;;;26.30;75.10;;;;;;5073263;28;20023;-61
2021/10/23 03:16:49;;;;;;;10.40;3.60;;;26.40;74.80;;;;;;5072353;28;20020;-54
2021/10/23 03:19:16;;;;;;;7.60;3.00;;;26.40;74.50;;;;;;5073181;28;20032;-55
2021/10/23 03:21:44;;;;;;;11.38;3.67;;;26.40;74.50;;;;;;5073548;28;20025;-58
2021/10/23 03:24:11;;;;;;;6.65;2.70;;;26.40;74.80;;;;;;5073290;28;20033;-54
2021/10/23 03:26:39;;;;;;;15.68;2.90;;;26.40;74.70;;;;;;5072747;28;20021;-61
2021/10/23 03:29:06;;;;;;;8.77;2.85;;;26.50;74.50;;;;;;5073349;28;20021;-55
2021/10/23 03:31:33;;;;;;;13.60;3.53;;;26.50;74.60;;;;;;5073282;28;20028;-55
2021/10/23 03:34:01;;;;;;;8.40;3.15;;;26.40;75.40;;;;;;5073032;28;20039;-58
2021/10/23 03:36:28;;;;;;;8.25;2.75;;;26.50;74.40;;;;;;5073445;28;20121;-59
2021/10/23 03:38:56;;;;;;;7.82;2.85;;;26.50;74.40;;;;;;5063018;28;20031;-49
2021/10/23 03:41:23;;;;;;;7.97;2.63;;;26.50;74.90;;;;;;5070514;28;20039;-58
2021/10/23 03:43:50;;;;;;;9.98;3.20;;;26.40;74.50;;;;;;5072416;28;20521;-65
2021/10/23 03:46:18;;;;;;;6.35;3.10;;;26.10;75.70;;;;;;5072800;28;20040;-63
2021/10/23 03:48:45;;;;;;;7.18;2.97;;;25.90;76.40;;;;;;5072886;28;20028;-65
2021/10/23 03:51:12;;;;;;;9.82;3.47;;;25.90;76.50;;;;;;5073191;28;20064;-65
2021/10/23 03:53:40;;;;;;;5.25;2.70;;;25.80;76.80;;;;;;5073175;28;20047;-62
2021/10/23 03:56:07;;;;;;;7.32;3.00;;;25.90;76.80;;;;;;5071765;28;20100;-62
2021/10/23 03:58:34;;;;;;;7.63;3.05;;;25.90;76.60;;;;;;5073140;28;20052;-57
2021/10/23 04:01:02;;;;;;;6.97;2.80;;;25.80;76.60;;;;;;5072841;28;20036;-59
2021/10/23 04:03:30;;;;;;;5.28;2.90;;;25.80;76.60;;;;;;5072813;28;20078;-57
2021/10/23 04:06:00;;;;;;;4.88;2.75;;;25.80;76.50;;;;;;5072737;28;20105;-62
2021/10/23 04:08:28;;;;;;;4.63;2.15;;;25.70;76.70;;;;;;5072967;28;20024;-61
2021/10/23 04:10:55;;;;;;;6.00;2.80;;;25.70;76.80;;;;;;5072703;28;20055;-64
2021/10/23 04:13:23;;;;;;;8.27;2.40;;;25.70;76.80;;;;;;5072762;28;20114;-65
2021/10/23 04:15:52;;;;;;;7.40;2.50;;;25.70;76.90;;;;;;5071733;28;20437;-58
2021/10/23 04:18:20;;;;;;;6.60;2.28;;;25.90;76.50;;;;;;5063219;28;20070;-63
2021/10/23 04:20:47;;;;;;;4.72;2.10;;;26.00;75.50;;;;;;5068657;28;20063;-58
2021/10/23 04:23:14;;;;;;;9.45;2.60;;;26.00;75.60;;;;;;5069043;28;20027;-60
2021/10/23 04:25:42;;;;;;;6.00;2.63;;;26.10;75.60;;;;;;5067908;28;20047;-62
2021/10/23 04:28:09;;;;;;;8.85;2.50;;;26.10;75.30;;;;;;5067487;28;20023;-60
2021/10/23 04:30:37;;;;;;;7.43;2.58;;;26.10;75.40;;;;;;5070665;28;20099;-55
2021/10/23 04:33:04;;;;;;;8.23;2.38;;;26.10;75.20;;;;;;5071896;28;20131;-65
2021/10/23 04:35:31;;;;;;;6.38;2.72;;;26.00;75.10;;;;;;5072224;28;20029;-67
2021/10/23 04:37:59;;;;;;;5.57;2.35;;;26.00;75.30;;;;;;5071627;28;20024;-63
2021/10/23 04:40:26;;;;;;;3.85;1.92;;;25.90;75.00;;;;;;5071919;28;20110;-55
2021/10/23 04:42:53;;;;;;;5.53;2.40;;;25.90;75.00;;;;;;5072711;28;20025;-59
2021/10/23 04:45:21;;;;;;;4.82;2.22;;;25.90;75.10;;;;;;5072440;28;20029;-61
2021/10/23 04:47:48;;;;;;;4.50;1.98;;;25.80;75.10;;;;;;5072121;28;20017;-64
2021/10/23 04:50:16;;;;;;;10.68;3.28;;;25.80;74.80;;;;;;5072772;28;20052;-54
2021/10/23 04:52:43;;;;;;;9.48;6.97;;;25.80;75.20;;;;;;5072064;28;20131;-62
2021/10/23 04:55:10;;;;;;;19.83;16.50;;;25.70;75.40;;;;;;5072841;28;20024;-63
2021/10/23 04:57:38;;;;;;;14.23;12.75;;;25.60;75.60;;;;;;5071552;28;20029;-61
2021/10/23 05:00:06;;;;;;;6.75;5.72;;;25.70;75.50;;;;;;5072072;28;20047;-60
2021/10/23 05:02:33;;;;;;;15.02;7.15;;;25.70;75.40;;;;;;5056748;28;20025;-69
2021/10/23 05:05:00;;;;;;;13.13;9.73;;;25.70;76.70;;;;;;5052302;28;20036;-62
2021/10/23 05:07:28;;;;;;;13.48;9.80;;;25.80;77.00;;;;;;5051852;28;20025;-62
2021/10/23 05:09:55;;;;;;;15.35;11.32;;;25.80;75.50;;;;;;5050932;28;20348;-59
2021/10/23 05:12:22;;;;;;;16.45;11.10;;;25.80;74.90;;;;;;5050533;28;20096;-59
2021/10/23 05:14:50;;;;;;;17.88;14.85;;;25.90;74.90;;;;;;5050093;28;20139;-65
2021/10/23 05:17:17;;;;;;;11.88;7.65;;;25.90;74.60;;;;;;5051416;28;20063;-61
2021/10/23 05:19:44;;;;;;;10.40;8.13;;;25.90;74.10;;;;;;5051268;28;20072;-59
2021/10/23 05:22:12;;;;;;;25.40;18.35;;;25.90;74.10;;;;;;5050778;28;20371;-53
2021/10/23 05:24:39;;;;;;;14.20;10.55;;;25.90;74.90;;;;;;5051382;28;20404;-60
2021/10/23 05:27:07;;;;;;;16.50;12.63;;;25.90;75.00;;;;;;5051541;28;20020;-59
2021/10/23 05:29:34;;;;;;;19.65;17.58;;;25.90;75.70;;;;;;5051364;28;20040;-57
2021/10/23 05:32:02;;;;;;;19.25;13.70;;;25.80;75.30;;;;;;5051495;28;20102;-60
2021/10/23 05:34:29;;;;;;;21.02;16.10;;;25.80;75.60;;;;;;5051464;28;20082;-56
2021/10/23 05:36:56;;;;;;;31.98;24.98;;;25.80;75.70;;;;;;5050490;28;20027;-59
2021/10/23 05:39:24;;;;;;;15.40;9.70;;;25.90;75.80;;;;;;5051623;28;20463;-62
2021/10/23 05:41:51;;;;;;;18.25;8.32;;;25.90;76.60;;;;;;5051226;28;20147;-61
2021/10/23 05:44:19;;;;;;;8.93;5.55;;;25.90;77.00;;;;;;5051026;28;20498;-57
2021/10/23 05:46:46;;;;;;;9.48;5.53;;;25.80;76.80;;;;;;5050922;28;20124;-56
2021/10/23 05:49:14;;;;;;;11.52;5.00;;;25.80;77.10;;;;;;5050245;28;20037;-59
2021/10/23 05:51:41;;;;;;;19.20;4.95;;;25.80;77.50;;;;;;5051130;28;20476;-59
2021/10/23 05:54:09;;;;;;;18.20;4.95;;;25.80;77.60;;;;;;5051041;28;20045;-67
2021/10/23 05:56:36;;;;;;;14.07;4.40;;;25.80;78.50;;;;;;5051255;28;20044;-65
2021/10/23 05:59:14;;;;;;;10.35;4.63;;;25.70;78.30;;;;;;5051477;28;20037;-60
2021/10/23 06:01:47;;;;;;;10.60;4.30;;;25.60;79.10;;;;;;5051340;28;20095;-62
2021/10/23 06:04:14;;;;;;;8.55;3.88;;;25.60;79.00;;;;;;5051344;28;20490;-63
2021/10/23 06:06:45;;;;;;;10.90;3.08;;;25.60;78.90;;;;;;5051665;28;20083;-63
2021/10/23 06:09:13;;;;;;;7.63;2.80;;;25.50;80.00;;;;;;5051418;28;20032;-57
2021/10/23 06:11:40;;;;;;;5.88;2.80;;;25.50;80.10;;;;;;5051103;28;20017;-66
2021/10/23 06:14:07;;;;;;;7.18;2.88;;;25.50;80.10;;;;;;5051697;28;20025;-64
2021/10/23 06:16:35;;;;;;;8.75;2.05;;;25.40;79.10;;;;;;5051935;28;20112;-64
2021/10/23 06:19:02;;;;;;;5.43;2.20;;;25.30;79.70;;;;;;5051916;28;20029;-62
2021/10/23 06:21:29;;;;;;;5.18;2.83;;;25.30;79.60;;;;;;5055530;28;20160;-65
2021/10/23 06:23:57;;;;;;;11.20;2.67;;;25.20;81.00;;;;;;5054974;28;20025;-58
2021/10/23 06:26:24;;;;;;;7.07;1.73;;;25.20;80.70;;;;;;5055439;28;20408;-63
2021/10/23 06:28:52;;;;;;;8.50;1.80;;;25.20;79.80;;;;;;5054079;28;20083;-62
2021/10/23 06:31:19;;;;;;;4.32;1.60;;;25.20;80.10;;;;;;5054469;28;20025;-57
2021/10/23 06:33:46;;;;;;;8.85;2.00;;;25.20;81.00;;;;;;5054566;28;20033;-58
2021/10/23 06:36:14;;;;;;;4.63;1.67;;;25.20;81.50;;;;;;5054482;28;20535;-62
2021/10/23 06:38:41;;;;;;;8.52;2.58;;;25.20;82.50;;;;;;5054499;28;20028;-62
2021/10/23 06:41:08;;;;;;;6.63;2.45;;;25.20;83.40;;;;;;5054536;28;20426;-61
2021/10/23 06:43:36;;;;;;;5.28;2.30;;;25.10;83.40;;;;;;5054705;28;20017;-56
2021/10/23 06:46:03;;;;;;;7.15;1.75;;;25.10;83.50;;;;;;5053900;28;20467;-65
2021/10/23 06:48:31;;;;;;;6.90;1.98;;;25.10;84.30;;;;;;5054124;28;20029;-62
2021/10/23 06:50:58;;;;;;;7.03;1.98;;;25.10;84.80;;;;;;5054513;28;20426;-57
2021/10/23 06:53:25;;;;;;;8.43;2.30;;;25.00;84.50;;;;;;5054020;28;20045;-58
2021/10/23 06:55:53;;;;;;;8.70;2.58;;;25.00;84.50;;;;;;5053826;28;20127;-64
2021/10/23 06:58:20;;;;;;;7.05;2.45;;;24.90;84.30;;;;;;5053990;28;20025;-61
2021/10/23 07:00:48;;;;;;;9.65;2.28;;;24.80;85.20;;;;;;5060403;28;20459;-58
2021/10/23 07:03:18;;;;;;;14.77;2.38;;;24.70;85.50;;;;;;5073280;28;20016;-62
2021/10/23 07:05:47;;;;;;;21.85;3.13;;;24.70;86.00;;;;;;5074012;28;20470;-59
2021/10/23 07:08:14;;;;;;;8.00;2.50;;;24.70;86.00;;;;;;5073691;28;20059;-63
2021/10/23 07:10:42;;;;;;;8.02;2.28;;;24.60;85.90;;;;;;5073776;28;20119;-63
2021/10/23 07:13:10;;;;;;;9.38;2.63;;;24.40;86.80;;;;;;5073799;28;20443;-63
2021/10/23 07:15:39;;;;;;;7.95;2.13;;;24.10;88.10;;;;;;5073628;28;20527;-67
2021/10/23 07:18:12;;;;;;;6.63;1.95;;;24.00;89.00;;;;;;5073481;28;20028;-64
2021/10/23 07:20:40;;;;;;;9.32;2.50;;;23.70;89.60;;;;;;5073942;28;20097;-64
2021/10/23 07:23:07;;;;;;;9.50;2.20;;;23.50;90.00;;;;;;5073392;28;20388;-62
2021/10/23 07:25:35;;;;;;;9.48;2.30;;;23.60;90.00;;;;;;5073379;28;20017;-65
2021/10/23 07:28:02;;;;;;;7.30;1.60;;;23.70;89.00;;;;;;5073401;28;20132;-63
2021/10/23 07:30:30;;;;;;;6.00;2.17;;;23.50;89.60;;;;;;5071068;28;20017;-65
2021/10/23 07:32:57;;;;;;;8.02;2.38;;;23.50;89.60;;;;;;5066268;28;20032;-62
2021/10/23 07:35:25;;;;;;;7.45;1.92;;;23.30;89.70;;;;;;5070927;28;20028;-62
2021/10/23 07:37:52;;;;;;;7.38;2.22;;;23.40;89.50;;;;;;5067968;28;20028;-60
2021/10/23 07:40:19;;;;;;;7.93;2.03;;;23.40;89.60;;;;;;5069871;28;20091;-67
2021/10/23 07:42:47;;;;;;;7.60;1.90;;;23.50;89.10;;;;;;5069118;28;20134;-64
2021/10/23 07:45:15;;;;;;;9.55;2.58;;;23.40;88.70;;;;;;5070682;28;20107;-61
2021/10/23 07:47:45;;;;;;;9.82;2.53;;;23.70;88.70;;;;;;5070116;28;20038;-59
2021/10/23 07:50:13;;;;;;;8.68;2.33;;;23.70;87.60;;;;;;5070634;28;20511;-70
2021/10/23 07:52:41;;;;;;;6.95;1.98;;;23.60;87.50;;;;;;5067692;28;20049;-56
2021/10/23 07:55:10;;;;;;;15.57;2.42;;;23.40;87.90;;;;;;5068793;28;20111;-67
2021/10/23 07:57:41;;;;;;;13.45;2.60;;;23.50;89.10;;;;;;5070508;28;20463;-68
2021/10/23 08:00:13;;;;;;;11.73;1.85;;;23.60;89.00;;;;;;5070141;28;20090;-64
2021/10/23 08:02:59;;;;;;;10.23;2.08;;;23.60;88.80;;;;;;5066077;28;20328;-60
2021/10/23 08:05:30;;;;;;;6.93;2.00;;;23.60;88.70;;;;;;5070105;28;20123;-68
2021/10/23 08:07:57;;;;;;;6.75;2.60;;;23.60;88.50;;;;;;5068337;28;20119;-61
2021/10/23 08:10:26;;;;;;;5.55;2.13;;;23.60;88.40;;;;;;5067284;28;20029;-60
2021/10/23 08:12:55;;;;;;;14.85;5.15;;;23.60;88.30;;;;;;5068346;28;20566;-60
2021/10/23 08:15:23;;;;;;;70.43;32.35;;;23.60;88.50;;;;;;5069666;28;20082;-61
2021/10/23 08:17:50;;;;;;;196.65;91.85;;;23.60;88.90;;;;;;5069144;28;20116;-61
2021/10/23 08:20:18;;;;;;;237.35;120.10;;;23.60;88.70;;;;;;5069267;28;20032;-65
2021/10/23 08:22:46;;;;;;;318.05;161.10;;;23.60;88.50;;;;;;5067119;28;20364;-70
2021/10/23 08:25:14;;;;;;;477.85;269.52;;;23.70;88.50;;;;;;5067836;28;20033;-58
2021/10/23 08:27:45;;;;;;;512.55;288.70;;;23.60;88.40;;;;;;5069757;28;20043;-60
2021/10/23 08:30:15;;;;;;;503.13;279.90;;;23.60;88.60;;;;;;5069442;28;20032;-54
2021/10/23 08:32:44;;;;;;;466.27;257.23;;;23.70;88.60;;;;;;5065768;28;20028;-59
2021/10/23 08:35:13;;;;;;;444.75;235.18;;;23.60;88.40;;;;;;5069730;28;20050;-60
2021/10/23 08:37:40;;;;;;;408.90;217.90;;;23.60;88.50;;;;;;5069514;28;20025;-63
2021/10/23 08:40:09;;;;;;;395.92;207.32;;;23.60;88.60;;;;;;5067217;28;20125;-61
2021/10/23 08:42:37;;;;;;;370.50;185.75;;;23.60;88.60;;;;;;5065256;28;20037;-63
2021/10/23 08:45:09;;;;;;;325.70;162.02;;;23.60;88.50;;;;;;5067073;28;20056;-60
2021/10/23 08:47:44;;;;;;;397.60;203.50;;;23.70;88.50;;;;;;5067629;28;20880;-63
2021/10/23 08:50:15;;;;;;;410.75;210.52;;;23.60;88.40;;;;;;5068823;28;20473;-65
2021/10/23 08:52:48;;;;;;;358.10;180.83;;;23.60;88.40;;;;;;5063770;28;20521;-61
2021/10/23 08:55:17;;;;;;;318.70;153.82;;;23.70;89.10;;;;;;5067216;28;20034;-62
2021/10/23 08:57:46;;;;;;;319.65;164.55;;;23.60;88.10;;;;;;5065934;28;20107;-57
2021/10/23 09:00:13;;;;;;;308.73;152.27;;;23.60;88.10;;;;;;5067896;28;20083;-62
2021/10/23 09:02:41;;;;;;;311.42;158.23;;;23.60;88.10;;;;;;5062907;28;20037;-64
2021/10/23 09:05:09;;;;;;;298.92;147.57;;;23.70;88.10;;;;;;5065808;28;20074;-62
2021/10/23 09:07:53;;;;;;;257.25;132.50;;;23.70;88.00;;;;;;5066948;28;20073;-60
2021/10/23 09:10:29;;;;;;;319.90;164.23;;;23.60;87.90;;;;;;5065085;28;20486;-61
2021/10/23 09:13:05;;;;;;;326.25;169.10;;;23.50;88.60;;;;;;5068697;28;20029;-64
2021/10/23 09:15:42;;;;;;;269.63;137.80;;;23.50;88.30;;;;;;5068943;28;20394;-60
2021/10/23 09:18:11;;;;;;;288.45;147.75;;;23.50;88.80;;;;;;5069228;28;20039;-59
2021/10/23 09:20:43;;;;;;;301.10;153.50;;;23.50;89.10;;;;;;5065602;28;20045;-60
2021/10/23 09:23:21;;;;;;;272.00;137.65;;;23.40;89.00;;;;;;5067815;28;20127;-60
2021/10/23 09:25:51;;;;;;;236.73;122.50;;;23.40;89.50;;;;;;5068322;28;20029;-60
2021/10/23 09:28:32;;;;;;;260.60;133.40;;;23.40;90.20;;;;;;5068831;28;20414;-60
2021/10/23 09:30:59;;;;;;;282.70;146.23;;;23.40;90.00;;;;;;5061355;28;20040;-57
2021/10/23 09:33:32;;;;;;;288.73;149.07;;;23.40;89.60;;;;;;5065572;28;20479;-60
2021/10/23 09:36:03;;;;;;;298.50;149.48;;;23.30;89.50;;;;;;5068190;28;20029;-61
2021/10/23 09:38:33;;;;;;;268.70;145.75;;;23.30;90.10;;;;;;5066075;28;20029;-64
2021/10/23 09:41:18;;;;;;;271.40;141.13;;;23.20;89.80;;;;;;5064612;28;20135;-65
2021/10/23 09:43:47;;;;;;;225.27;119.80;;;23.30;90.00;;;;;;5068066;28;20078;-68
2021/10/23 09:46:20;;;;;;;217.93;120.63;;;23.20;90.30;;;;;;5068826;28;20027;-69
2021/10/23 09:48:52;;;;;;;232.85;125.38;;;23.20;90.00;;;;;;5068301;28;20086;-62
2021/10/23 09:51:21;;;;;;;235.68;126.38;;;23.20;89.80;;;;;;5064335;28;20661;-63
2021/10/23 09:53:56;;;;;;;201.30;108.20;;;23.20;89.70;;;;;;5068578;28;20072;-55
2021/10/23 09:56:32;;;;;;;197.15;108.35;;;23.20;90.20;;;;;;5071614;28;20024;-61
2021/10/23 09:59:02;;;;;;;223.77;118.63;;;23.20;90.30;;;;;;5070321;28;20029;-57
2021/10/23 10:01:32;;;;;;;218.52;116.65;;;23.20;90.20;;;;;;5067435;28;20036;-55
2021/10/23 10:04:03;;;;;;;198.80;107.80;;;23.20;90.30;;;;;;5071131;28;20025;-61
2021/10/23 10:06:32;;;;;;;221.50;113.10;;;23.20;90.50;;;;;;5071642;28;20107;-61
2021/10/23 10:08:59;;;;;;;206.63;111.93;;;23.20;90.20;;;;;;5072674;28;20024;-60
2021/10/23 10:11:27;;;;;;;200.80;108.43;;;23.10;90.10;;;;;;5064789;28;20031;-63
2021/10/23 10:13:55;;;;;;;210.07;113.97;;;23.10;90.20;;;;;;5072139;28;20024;-57
2021/10/23 10:16:25;;;;;;;192.10;101.43;;;23.10;90.20;;;;;;5072278;28;20032;-59
2021/10/23 10:18:55;;;;;;;185.57;99.72;;;23.10;90.50;;;;;;5072334;28;20085;-59
2021/10/23 10:21:23;;;;;;;172.85;95.97;;;23.10;90.70;;;;;;5067435;28;20405;-54
2021/10/23 10:23:54;;;;;;;180.93;98.55;;;23.10;90.70;;;;;;5072054;28;20092;-61
2021/10/23 10:26:35;;;;;;;156.35;88.10;;;23.10;90.60;;;;;;5070397;28;20028;-57
2021/10/23 10:43:01;;;;;;;169.82;90.60;;;23.00;90.50;;;;;;5067212;28;20078;-62
2021/10/23 10:45:35;;;;;;;159.93;85.93;;;23.00;90.70;;;;;;5069010;28;20023;-61
2021/10/23 10:48:21;;;;;;;168.93;90.72;;;23.00;90.80;;;;;;5070949;28;20024;-62
2021/10/23 10:50:53;;;;;;;153.80;85.57;;;22.90;90.40;;;;;;5067187;28;20035;-66
2021/10/23 10:53:26;;;;;;;160.23;90.35;;;22.90;90.50;;;;;;5071076;28;20048;-62
2021/10/23 10:56:04;;;;;;;144.65;77.32;;;22.90;90.40;;;;;;5071351;28;20028;-57
2021/10/23 10:58:57;;;;;;;135.23;71.45;;;23.00;91.00;;;;;;5071997;28;20109;-60
2021/10/23 11:01:32;;;;;;;160.40;87.50;;;22.90;91.10;;;;;;5067209;28;20040;-60
2021/10/23 11:04:03;;;;;;;150.07;82.25;;;22.90;90.50;;;;;;5071616;28;20351;-64
2021/10/23 11:06:33;;;;;;;147.60;81.90;;;23.00;90.70;;;;;;5069609;28;20020;-59
2021/10/23 11:09:15;;;;;;;158.30;83.95;;;22.90;90.90;;;;;;5071784;28;20054;-60
2021/10/23 11:11:51;;;;;;;151.63;80.22;;;22.90;90.70;;;;;;5065339;28;20039;-61
2021/10/23 11:14:21;;;;;;;144.77;80.03;;;22.90;90.70;;;;;;5071280;28;20091;-65
2021/10/23 11:17:12;;;;;;;133.52;74.88;;;22.90;90.90;;;;;;5070955;28;20357;-62
2021/10/23 11:19:44;;;;;;;133.02;75.63;;;22.90;90.70;;;;;;5060313;28;20090;-61
2021/10/23 11:22:30;;;;;;;142.32;76.22;;;22.90;90.60;;;;;;5066632;28;20100;-60
2021/10/23 11:25:03;;;;;;;141.02;77.30;;;22.90;90.70;;;;;;5070598;28;20052;-67
2021/10/23 11:27:41;;;;;;;140.02;77.13;;;22.90;90.50;;;;;;5070989;28;20100;-61
2021/10/23 11:30:14;;;;;;;135.40;77.82;;;22.90;90.50;;;;;;5070356;28;20040;-62
2021/10/23 11:33:03;;;;;;;136.80;77.45;;;22.90;90.50;;;;;;5067021;28;20081;-62
2021/10/23 11:35:44;;;;;;;135.93;78.22;;;22.90;90.50;;;;;;5070189;28;20020;-61
2021/10/23 11:38:22;;;;;;;140.27;74.68;;;22.90;90.20;;;;;;5070964;28;20028;-64
2021/10/23 11:41:00;;;;;;;134.23;73.38;;;22.80;90.50;;;;;;5068610;28;20097;-65
2021/10/23 11:43:39;;;;;;;125.78;73.38;;;22.80;90.40;;;;;;5073326;28;20039;-66
2021/10/23 11:46:12;;;;;;;131.43;71.82;;;22.80;90.40;;;;;;5073207;28;20017;-66
2021/10/23 11:48:39;;;;;;;134.32;74.25;;;22.70;90.40;;;;;;5071789;28;20025;-66
2021/10/23 11:51:07;;;;;;;122.80;71.03;;;22.70;90.30;;;;;;5073144;28;20051;-65
2021/10/23 11:53:35;;;;;;;127.07;71.18;;;22.70;90.40;;;;;;5072762;28;20411;-66
2021/10/23 11:56:06;;;;;;;124.13;68.57;;;22.70;90.40;;;;;;5072559;28;20103;-66
2021/10/23 11:58:41;;;;;;;136.10;75.27;;;22.70;90.40;;;;;;5073207;28;20021;-65
2021/10/23 12:01:11;;;;;;;135.18;72.32;;;22.60;90.40;;;;;;5072895;28;20091;-66
2021/10/23 12:03:49;;;;;;;119.97;69.25;;;22.60;90.50;;;;;;5070506;28;20024;-67
2021/10/23 12:06:28;;;;;;;116.57;65.20;;;22.60;90.50;;;;;;5071001;28;20024;-64
2021/10/23 12:09:14;;;;;;;120.72;66.43;;;22.60;90.60;;;;;;5072482;28;20452;-68
2021/10/23 12:11:44;;;;;;;116.35;64.80;;;22.50;90.50;;;;;;5072650;28;20033;-65
2021/10/23 12:14:14;;;;;;;113.30;63.53;;;22.50;90.60;;;;;;5073199;28;20021;-66
2021/10/23 12:16:41;;;;;;;107.47;62.65;;;22.50;90.60;;;;;;5073767;28;20471;-68
2021/10/23 12:19:34;;;;;;;112.72;62.83;;;22.40;90.60;;;;;;5072078;28;20040;-66
2021/10/23 12:22:19;;;;;;;114.13;65.20;;;22.40;90.60;;;;;;5072967;28;20475;-70
2021/10/23 12:24:50;;;;;;;107.18;62.30;;;22.40;90.60;;;;;;5072398;28;20198;-69
2021/10/23 12:27:31;;;;;;;103.30;58.97;;;22.30;90.60;;;;;;5073654;28;20119;-71
2021/10/23 12:30:04;;;;;;;104.60;59.75;;;22.30;90.60;;;;;;5072908;28;20039;-68
2021/10/23 12:32:43;;;;;;;104.05;61.42;;;22.30;90.70;;;;;;5073280;28;20047;-66
2021/10/23 12:35:24;;;;;;;109.07;59.00;;;22.30;90.70;;;;;;5072682;28;20443;-66
2021/10/23 12:37:56;;;;;;;94.03;56.10;;;22.30;90.80;;;;;;5072441;28;20020;-63
2021/10/23 12:40:35;;;;;;;98.70;53.58;;;22.20;90.80;;;;;;5071573;28;20052;-64
2021/10/23 12:43:06;;;;;;;96.70;56.17;;;22.20;90.80;;;;;;5072676;28;20021;-62
2021/10/23 12:45:39;;;;;;;99.10;54.92;;;22.20;90.90;;;;;;5061986;28;20475;-58
2021/10/23 12:48:15;;;;;;;89.63;52.92;;;22.20;91.00;;;;;;5067907;28;20031;-60
2021/10/23 12:50:45;;;;;;;90.95;53.70;;;22.20;91.00;;;;;;5069075;28;20029;-59
2021/10/23 12:53:13;;;;;;;85.75;51.67;;;22.10;91.00;;;;;;5067448;28;20234;-66
2021/10/23 12:55:41;;;;;;;94.22;52.72;;;22.10;91.00;;;;;;5067893;28;20115;-62
2021/10/23 12:58:09;;;;;;;83.68;49.65;;;22.10;91.00;;;;;;5068439;28;20063;-66
2021/10/23 13:00:39;;;;;;;86.35;50.65;;;22.10;91.10;;;;;;5069419;28;20501;-66